Time;durP1;ratioP1;P1;durP2;ratioP2;P2;SDS_P1;SDS_P2;PMS_P1;PMS_P2;Temp;Humidity;BMP_temperature;BMP_pressure;BME280_temperature;BME280_humidity;BME280_pressure;Samples;Min_cycle;Max_cycle;Signal;HPM_P1;HPM_P2
2022/11/06 00:01:55;;;;;;;10.13;7.43;;;;;;;;;;4979254;28;20213;-78
2022/11/06 00:06:46;;;;;;;11.03;7.33;;;;;;;;;;5013360;28;20193;-78
2022/11/06 00:08:29;;;;;;;10.30;7.63;;;;;;;;;;5012905;28;20205;-78
2022/11/06 00:11:34;;;;;;;11.27;7.80;;;;;;;;;;5013054;28;20217;-77
2022/11/06 00:14:38;;;;;;;12.50;7.80;;;;;;;;;;5005068;23;20238;-79
2022/11/06 00:17:42;;;;;;;10.87;7.33;;;;;;;;;;4992460;28;20206;-79
2022/11/06 00:20:46;;;;;;;9.63;6.47;;;;;;;;;;4993511;28;20230;-80
2022/11/06 00:23:52;;;;;;;11.97;6.80;;;;;;;;;;4988374;28;20186;-80
2022/11/06 00:26:56;;;;;;;9.50;6.60;;;;;;;;;;4988768;28;20175;-79
2022/11/06 00:30:01;;;;;;;10.87;7.53;;;;;;;;;;4980006;28;20206;-79
2022/11/06 00:33:05;;;;;;;15.27;7.30;;;;;;;;;;4979761;28;20642;-80
2022/11/06 00:36:12;;;;;;;12.20;7.77;;;;;;;;;;4967566;28;20210;-80
2022/11/06 00:39:16;;;;;;;9.93;6.47;;;;;;;;;;4978303;28;20190;-80
2022/11/06 00:42:20;;;;;;;10.43;6.83;;;;;;;;;;4976917;28;20218;-80
2022/11/06 00:45:25;;;;;;;8.33;6.27;;;;;;;;;;4989037;28;20537;-80
2022/11/06 00:48:29;;;;;;;9.20;6.73;;;;;;;;;;4985773;28;20205;-80
2022/11/06 00:51:35;;;;;;;12.87;8.30;;;;;;;;;;5006908;28;20221;-80
2022/11/06 00:54:39;;;;;;;8.47;6.57;;;;;;;;;;4983431;28;20209;-80
2022/11/06 00:57:44;;;;;;;9.83;6.57;;;;;;;;;;5006402;28;20190;-80
2022/11/06 01:00:48;;;;;;;14.87;8.50;;;;;;;;;;4983976;28;20222;-80
2022/11/06 01:03:55;;;;;;;12.53;8.20;;;;;;;;;;4995256;28;20206;-80
2022/11/06 01:06:59;;;;;;;14.17;9.67;;;;;;;;;;4974768;28;20182;-80
2022/11/06 01:10:04;;;;;;;16.20;9.33;;;;;;;;;;4973972;28;20190;-80
2022/11/06 01:13:08;;;;;;;11.17;7.07;;;;;;;;;;4984926;28;20186;-80
2022/11/06 01:16:14;;;;;;;12.60;8.53;;;;;;;;;;4984309;28;20214;-80
2022/11/06 01:19:20;;;;;;;13.83;8.23;;;;;;;;;;4973387;28;20194;-80
2022/11/06 01:22:24;;;;;;;12.57;8.53;;;;;;;;;;4973095;28;20217;-80
2022/11/06 01:25:29;;;;;;;16.30;10.40;;;;;;;;;;4982450;28;20186;-80
2022/11/06 01:28:33;;;;;;;19.03;10.80;;;;;;;;;;4982750;28;20194;-80
2022/11/06 01:31:38;;;;;;;17.30;11.10;;;;;;;;;;4983500;28;20232;-80
2022/11/06 01:34:43;;;;;;;15.57;9.63;;;;;;;;;;4983615;28;20647;-80
2022/11/06 01:37:47;;;;;;;11.77;7.67;;;;;;;;;;4972548;28;20523;-79
2022/11/06 01:40:52;;;;;;;12.60;7.60;;;;;;;;;;4970568;28;20230;-79
2022/11/06 01:44:00;;;;;;;11.03;7.33;;;;;;;;;;4982566;28;20198;-79
2022/11/06 01:47:26;;;;;;;8.73;6.20;;;;;;;;;;5003643;28;20179;-79
2022/11/06 01:50:31;;;;;;;12.87;7.00;;;;;;;;;;4980050;28;20214;-79
2022/11/06 01:53:36;;;;;;;11.97;6.93;;;;;;;;;;4984331;28;20535;-79
2022/11/06 01:56:42;;;;;;;13.47;7.93;;;;;;;;;;4984378;28;20203;-80
2022/11/06 01:59:49;;;;;;;14.97;9.53;;;;;;;;;;4983845;28;20551;-80
2022/11/06 02:02:53;;;;;;;14.47;9.10;;;;;;;;;;4971874;28;20202;-80
2022/11/06 02:05:58;;;;;;;12.20;8.57;;;;;;;;;;4971677;28;20207;-80
2022/11/06 02:09:10;;;;;;;11.87;7.97;;;;;;;;;;4971863;28;20203;-80
2022/11/06 02:12:44;;;;;;;10.87;7.73;;;;;;;;;;4981092;28;20222;-80
2022/11/06 02:16:10;;;;;;;11.37;7.50;;;;;;;;;;4980643;28;20202;-80
2022/11/06 02:19:32;;;;;;;17.40;8.83;;;;;;;;;;4970226;28;20206;-80
2022/11/06 02:22:55;;;;;;;14.13;8.67;;;;;;;;;;4960691;28;20227;-79
2022/11/06 02:26:23;;;;;;;13.03;8.87;;;;;;;;;;4971733;28;20187;-80
2022/11/06 02:29:33;;;;;;;12.17;8.03;;;;;;;;;;4971761;28;20519;-78
2022/11/06 02:32:40;;;;;;;12.63;9.13;;;;;;;;;;4972972;28;20566;-81
2022/11/06 02:36:02;;;;;;;13.93;9.40;;;;;;;;;;4971679;28;20214;-79
2022/11/06 02:39:11;;;;;;;16.90;10.07;;;;;;;;;;4963279;28;20199;-79
2022/11/06 02:42:18;;;;;;;14.87;8.73;;;;;;;;;;4971378;28;20222;-79
2022/11/06 02:45:26;;;;;;;10.93;7.57;;;;;;;;;;4970256;28;20187;-79
2022/11/06 02:48:35;;;;;;;12.63;8.73;;;;;;;;;;4959318;28;20187;-80
2022/11/06 02:51:45;;;;;;;12.33;8.03;;;;;;;;;;4970824;28;20226;-80
2022/11/06 02:55:13;;;;;;;14.10;8.30;;;;;;;;;;4959682;28;20218;-79
2022/11/06 02:58:25;;;;;;;10.67;7.40;;;;;;;;;;4970761;28;20191;-80
2022/11/06 03:01:34;;;;;;;10.70;7.33;;;;;;;;;;4981530;28;20688;-79
2022/11/06 03:04:50;;;;;;;12.70;8.00;;;;;;;;;;4984109;28;20206;-80
2022/11/06 03:08:01;;;;;;;10.10;7.33;;;;;;;;;;4986031;28;20539;-79
2022/11/06 03:11:43;;;;;;;7.40;5.80;;;;;;;;;;4970443;28;20951;-80
2022/11/06 03:15:20;;;;;;;8.17;5.77;;;;;;;;;;4955625;28;20563;-79
2022/11/06 03:18:33;;;;;;;8.53;5.90;;;;;;;;;;4970253;28;20646;-80
2022/11/06 03:22:16;;;;;;;12.70;5.93;;;;;;;;;;4981631;28;20547;-80
2022/11/06 03:25:42;;;;;;;8.17;5.23;;;;;;;;;;4953820;28;20210;-79
2022/11/06 03:28:49;;;;;;;6.87;4.97;;;;;;;;;;4977707;28;20522;-79
2022/11/06 03:32:14;;;;;;;17.47;5.57;;;;;;;;;;4988309;28;20222;-78
2022/11/06 03:35:37;;;;;;;12.30;5.67;;;;;;;;;;4968102;28;20190;-79
2022/11/06 03:38:50;;;;;;;15.50;6.47;;;;;;;;;;4988337;28;20186;-79
2022/11/06 03:42:08;;;;;;;13.33;6.63;;;;;;;;;;4967443;28;20222;-78
2022/11/06 03:45:19;;;;;;;11.90;6.53;;;;;;;;;;4977229;28;20882;-78
2022/11/06 03:48:35;;;;;;;9.90;7.50;;;;;;;;;;4968367;28;20606;-78
2022/11/06 03:51:56;;;;;;;15.30;7.60;;;;;;;;;;4962218;28;20223;-78
2022/11/06 03:55:06;;;;;;;10.27;7.00;;;;;;;;;;4972886;28;20191;-79
2022/11/06 03:58:17;;;;;;;16.20;6.97;;;;;;;;;;4973714;28;20190;-78
2022/11/06 04:01:26;;;;;;;48.67;7.63;;;;;;;;;;4961625;28;20226;-79
2022/11/06 04:04:40;;;;;;;99.57;8.87;;;;;;;;;;4961576;28;20190;-78
2022/11/06 04:14:47;;;;;;;40.70;8.97;;;;;;;;;;4960540;28;20210;-79
2022/11/06 04:17:51;;;;;;;17.67;8.33;;;;;;;;;;4960106;28;20187;-79
2022/11/06 04:21:22;;;;;;;13.13;8.67;;;;;;;;;;4949200;28;20226;-78
2022/11/06 04:28:15;;;;;;;19.37;8.83;;;;;;;;;;4970784;28;20180;-78
2022/11/06 04:31:35;;;;;;;18.27;10.33;;;;;;;;;;4960193;28;20697;-78
2022/11/06 04:34:51;;;;;;;25.77;10.47;;;;;;;;;;4960269;28;20196;-78
2022/11/06 04:38:03;;;;;;;15.37;9.80;;;;;;;;;;4960588;28;20194;-79
2022/11/06 04:41:15;;;;;;;19.57;9.57;;;;;;;;;;4959851;28;20226;-79
2022/11/06 04:44:29;;;;;;;31.23;10.40;;;;;;;;;;4960511;28;20231;-79
2022/11/06 04:47:36;;;;;;;27.50;10.93;;;;;;;;;;4960297;28;20218;-79
2022/11/06 04:50:47;;;;;;;34.43;10.57;;;;;;;;;;4959735;28;20209;-79
2022/11/06 04:53:52;;;;;;;59.83;10.87;;;;;;;;;;4959458;28;20187;-79
2022/11/06 04:56:59;;;;;;;31.83;9.97;;;;;;;;;;4948833;28;20690;-78
2022/11/06 05:00:05;;;;;;;40.90;9.57;;;;;;;;;;4958897;28;20206;-79
2022/11/06 05:03:09;;;;;;;31.70;8.93;;;;;;;;;;4948267;28;20211;-78
2022/11/06 05:06:13;;;;;;;36.87;9.50;;;;;;;;;;4958754;28;20226;-78
2022/11/06 05:09:17;;;;;;;39.97;8.37;;;;;;;;;;4959184;28;20211;-82
2022/11/06 05:12:21;;;;;;;18.17;7.90;;;;;;;;;;4958725;28;20230;-79
2022/11/06 05:15:27;;;;;;;29.73;8.90;;;;;;;;;;4970504;28;20206;-80
2022/11/06 05:18:31;;;;;;;30.63;8.63;;;;;;;;;;4947157;28;20186;-79
2022/11/06 05:24:58;;;;;;;22.10;7.03;;;;;;;;;;4981927;28;20187;-79
2022/11/06 05:28:05;;;;;;;16.40;8.90;;;;;;;;;;4969482;28;20626;-79
2022/11/06 05:31:10;;;;;;;40.30;8.57;;;;;;;;;;4969929;28;20218;-79
2022/11/06 05:34:14;;;;;;;50.17;8.80;;;;;;;;;;4947376;28;20191;-80
2022/11/06 05:37:18;;;;;;;34.13;8.33;;;;;;;;;;4947754;28;20179;-79
2022/11/06 05:40:23;;;;;;;32.67;8.57;;;;;;;;;;4969783;28;20187;-79
2022/11/06 05:43:27;;;;;;;13.87;7.97;;;;;;;;;;4969568;28;20234;-79
2022/11/06 05:46:31;;;;;;;23.03;8.10;;;;;;;;;;4969190;28;20555;-79
2022/11/06 05:49:35;;;;;;;12.10;8.27;;;;;;;;;;4958588;28;20195;-77
2022/11/06 05:52:40;;;;;;;27.50;8.37;;;;;;;;;;4958111;28;20570;-79
2022/11/06 05:55:46;;;;;;;24.30;8.27;;;;;;;;;;4947321;28;20191;-80
2022/11/06 05:58:50;;;;;;;31.63;8.40;;;;;;;;;;4947374;28;20187;-80
2022/11/06 06:01:55;;;;;;;39.73;8.90;;;;;;;;;;4946642;28;20222;-80
2022/11/06 06:04:59;;;;;;;26.33;8.50;;;;;;;;;;4971545;28;21017;-80
2022/11/06 06:08:04;;;;;;;30.07;9.40;;;;;;;;;;4957487;28;20202;-80
2022/11/06 06:11:08;;;;;;;40.30;8.13;;;;;;;;;;4946597;28;20235;-80
2022/11/06 06:14:12;;;;;;;24.05;7.30;;;;;;;;;;4973577;23;20214;-76
2022/11/06 06:17:16;;;;;;;15.83;7.97;;;;;;;;;;4982770;28;20226;-76
2022/11/06 06:20:21;;;;;;;17.17;8.10;;;;;;;;;;4994153;28;20182;-76
2022/11/06 06:23:25;;;;;;;50.77;8.13;;;;;;;;;;4975233;28;20638;-76
2022/11/06 06:26:29;;;;;;;41.27;8.53;;;;;;;;;;4975477;28;20234;-76
2022/11/06 06:29:33;;;;;;;40.03;8.03;;;;;;;;;;4994461;28;20205;-76
2022/11/06 06:32:37;;;;;;;23.80;7.77;;;;;;;;;;4982704;28;20221;-76
2022/11/06 06:35:41;;;;;;;19.37;7.10;;;;;;;;;;4987083;28;20211;-76
2022/11/06 06:38:46;;;;;;;58.60;8.37;;;;;;;;;;4963220;28;20207;-75
2022/11/06 06:41:50;;;;;;;14.93;7.67;;;;;;;;;;4973725;28;20218;-76
2022/11/06 06:44:54;;;;;;;22.50;7.07;;;;;;;;;;4976503;28;20202;-76
2022/11/06 06:48:05;;;;;;;21.00;7.53;;;;;;;;;;4975175;28;20870;-75
2022/11/06 06:51:09;;;;;;;13.30;7.73;;;;;;;;;;4970629;28;20234;-76
2022/11/06 06:54:13;;;;;;;14.83;7.93;;;;;;;;;;4973034;28;20183;-76
2022/11/06 06:57:17;;;;;;;24.50;8.40;;;;;;;;;;4972845;28;20201;-76
2022/11/06 07:00:21;;;;;;;12.77;8.10;;;;;;;;;;4970211;28;20210;-78
2022/11/06 07:03:25;;;;;;;11.83;7.87;;;;;;;;;;4970026;28;20186;-76
2022/11/06 07:06:29;;;;;;;24.77;8.17;;;;;;;;;;4972953;28;20219;-78
2022/11/06 07:09:33;;;;;;;16.33;8.40;;;;;;;;;;4972878;28;20195;-79
2022/11/06 07:12:37;;;;;;;12.40;7.77;;;;;;;;;;4979094;28;20569;-76
2022/11/06 07:15:42;;;;;;;17.00;9.97;;;;;;;;;;4984253;28;20221;-75
2022/11/06 07:18:46;;;;;;;17.97;10.83;;;;;;;;;;4986273;28;20187;-76
2022/11/06 07:21:51;;;;;;;16.43;11.53;;;;;;;;;;4986713;28;20239;-78
2022/11/06 07:24:55;;;;;;;18.77;10.90;;;;;;;;;;4986513;28;20202;-76
2022/11/06 07:28:04;;;;;;;16.00;10.37;;;;;;;;;;4968045;28;20245;-78
2022/11/06 07:31:11;;;;;;;20.47;10.93;;;;;;;;;;4989546;28;20229;-79
2022/11/06 07:34:15;;;;;;;32.97;12.20;;;;;;;;;;4976852;28;20216;-76
2022/11/06 07:37:20;;;;;;;25.23;10.63;;;;;;;;;;4974713;28;20278;-79
2022/11/06 07:40:24;;;;;;;17.93;10.37;;;;;;;;;;4973717;28;20198;-78
2022/11/06 07:43:28;;;;;;;17.87;10.37;;;;;;;;;;4956374;28;20206;-78
2022/11/06 07:46:32;;;;;;;31.10;11.60;;;;;;;;;;4964019;28;20187;-78
2022/11/06 07:49:36;;;;;;;26.50;12.00;;;;;;;;;;4982438;28;20201;-78
2022/11/06 07:52:40;;;;;;;24.67;11.47;;;;;;;;;;4983316;28;20233;-77
2022/11/06 07:55:53;;;;;;;17.50;11.40;;;;;;;;;;4979293;28;20196;-77
2022/11/06 07:58:57;;;;;;;22.83;12.80;;;;;;;;;;4993955;28;20205;-78
2022/11/06 08:02:01;;;;;;;21.07;12.47;;;;;;;;;;4977458;28;20233;-80
2022/11/06 08:05:05;;;;;;;22.60;13.57;;;;;;;;;;4986194;28;20213;-78
2022/11/06 08:08:10;;;;;;;27.00;13.93;;;;;;;;;;5000798;28;20222;-78
2022/11/06 08:11:14;;;;;;;23.90;14.27;;;;;;;;;;5001138;28;20214;-78
2022/11/06 08:14:19;;;;;;;22.27;13.57;;;;;;;;;;5000461;28;20182;-78
2022/11/06 08:17:23;;;;;;;27.70;14.63;;;;;;;;;;4967145;28;20687;-78
2022/11/06 08:20:28;;;;;;;28.50;15.80;;;;;;;;;;5000045;28;20199;-78
2022/11/06 08:23:33;;;;;;;26.83;14.70;;;;;;;;;;4985414;28;20193;-78
2022/11/06 08:26:38;;;;;;;25.40;15.37;;;;;;;;;;4966406;28;20570;-78
2022/11/06 08:29:42;;;;;;;25.70;15.93;;;;;;;;;;4966463;28;20213;-77
2022/11/06 08:32:46;;;;;;;28.97;15.67;;;;;;;;;;4978450;28;20229;-78
2022/11/06 08:35:50;;;;;;;27.70;16.17;;;;;;;;;;4968735;28;20195;-78
2022/11/06 08:38:54;;;;;;;29.43;15.87;;;;;;;;;;4950117;28;20190;-78
2022/11/06 08:41:59;;;;;;;27.73;15.57;;;;;;;;;;4980315;28;20230;-78
2022/11/06 08:45:04;;;;;;;27.83;16.33;;;;;;;;;;4968998;28;20519;-78
2022/11/06 08:48:10;;;;;;;30.03;16.93;;;;;;;;;;4957288;28;20207;-77
2022/11/06 08:51:14;;;;;;;28.83;16.50;;;;;;;;;;4981603;28;20246;-78
2022/11/06 08:54:17;;;;;;;27.33;15.20;;;;;;;;;;4991001;28;20234;-77
2022/11/06 08:57:22;;;;;;;26.30;15.60;;;;;;;;;;4984111;28;20182;-77
2022/11/06 09:00:26;;;;;;;25.00;15.47;;;;;;;;;;4956426;28;20190;-78
2022/11/06 09:03:31;;;;;;;24.83;15.43;;;;;;;;;;4980322;28;20213;-78
2022/11/06 09:06:35;;;;;;;26.03;15.60;;;;;;;;;;4979459;28;20196;-78
2022/11/06 09:09:39;;;;;;;28.17;16.10;;;;;;;;;;4946757;28;20215;-77
2022/11/06 09:12:43;;;;;;;27.73;16.13;;;;;;;;;;4956599;28;20561;-78
2022/11/06 09:15:48;;;;;;;28.60;17.07;;;;;;;;;;4981915;28;20210;-78
2022/11/06 09:18:55;;;;;;;31.43;17.17;;;;;;;;;;4956547;28;20190;-77
2022/11/06 09:21:59;;;;;;;29.67;16.63;;;;;;;;;;4977213;28;20221;-77
2022/11/06 09:25:04;;;;;;;30.70;17.43;;;;;;;;;;4976245;28;20185;-77
2022/11/06 09:28:08;;;;;;;27.47;15.57;;;;;;;;;;4974066;28;20223;-77
2022/11/06 09:31:12;;;;;;;28.73;16.83;;;;;;;;;;4983606;28;20716;-77
2022/11/06 09:34:17;;;;;;;30.50;16.83;;;;;;;;;;4960518;28;20651;-77
2022/11/06 09:37:21;;;;;;;28.07;17.00;;;;;;;;;;4976814;28;20198;-77
2022/11/06 09:40:30;;;;;;;32.50;18.40;;;;;;;;;;4966461;28;20672;-77
2022/11/06 09:43:49;;;;;;;28.27;17.50;;;;;;;;;;4976756;28;20198;-78
2022/11/06 09:46:55;;;;;;;30.40;17.00;;;;;;;;;;4984936;28;20204;-78
2022/11/06 09:50:05;;;;;;;33.77;18.80;;;;;;;;;;4962163;28;20188;-78
2022/11/06 09:53:18;;;;;;;29.83;17.23;;;;;;;;;;4962786;28;20207;-76
2022/11/06 09:56:29;;;;;;;25.27;15.77;;;;;;;;;;4975389;28;20198;-78
2022/11/06 09:59:36;;;;;;;23.43;14.73;;;;;;;;;;4962443;28;20190;-78
2022/11/06 10:03:09;;;;;;;26.60;15.87;;;;;;;;;;4970820;28;20720;-78
2022/11/06 10:06:21;;;;;;;26.90;14.17;;;;;;;;;;4989425;28;20191;-79
2022/11/06 10:09:25;;;;;;;26.20;14.77;;;;;;;;;;4966312;28;20680;-78
2022/11/06 10:12:52;;;;;;;21.97;14.40;;;;;;;;;;4967914;28;20718;-77
2022/11/06 10:16:21;;;;;;;21.63;13.20;;;;;;;;;;4982286;28;20222;-78
2022/11/06 10:19:31;;;;;;;19.57;12.03;;;;;;;;;;4996027;28;20201;-79
2022/11/06 10:22:39;;;;;;;20.80;12.50;;;;;;;;;;4977994;28;20239;-78
2022/11/06 10:26:10;;;;;;;19.60;11.97;;;;;;;;;;4978154;28;20199;-78
2022/11/06 10:29:43;;;;;;;22.20;12.77;;;;;;;;;;4978833;28;20215;-78
2022/11/06 10:33:15;;;;;;;20.10;12.87;;;;;;;;;;4981881;28;20241;-78
2022/11/06 10:36:29;;;;;;;20.97;12.97;;;;;;;;;;4968820;28;20207;-76
2022/11/06 10:39:35;;;;;;;23.27;13.13;;;;;;;;;;4963551;28;20194;-76
2022/11/06 10:42:41;;;;;;;23.60;13.47;;;;;;;;;;4974757;28;20227;-76
2022/11/06 10:45:59;;;;;;;22.50;13.50;;;;;;;;;;4962765;28;20198;-76
2022/11/06 10:49:14;;;;;;;19.80;12.57;;;;;;;;;;4951697;28;20219;-76
2022/11/06 10:52:21;;;;;;;20.23;13.97;;;;;;;;;;4952335;28;20229;-76
2022/11/06 10:56:00;;;;;;;20.73;13.80;;;;;;;;;;4975297;28;20191;-76
2022/11/06 10:59:04;;;;;;;21.43;14.13;;;;;;;;;;4899734;28;20187;-77
2022/11/06 11:02:23;;;;;;;22.30;13.13;;;;;;;;;;4974572;28;20235;-76
2022/11/06 11:05:43;;;;;;;21.93;14.07;;;;;;;;;;4974822;28;20575;-77
2022/11/06 11:08:49;;;;;;;19.63;13.33;;;;;;;;;;4974080;28;20221;-77
2022/11/06 11:11:54;;;;;;;19.23;13.27;;;;;;;;;;4974883;28;20227;-77
2022/11/06 11:15:10;;;;;;;21.13;14.20;;;;;;;;;;4951734;28;20581;-77
2022/11/06 11:18:20;;;;;;;20.70;13.93;;;;;;;;;;4962929;28;20190;-77
2022/11/06 11:21:26;;;;;;;15.63;12.37;;;;;;;;;;4962466;28;20722;-75
2022/11/06 11:24:31;;;;;;;21.03;13.97;;;;;;;;;;4974618;28;20182;-77
2022/11/06 11:27:42;;;;;;;18.20;13.13;;;;;;;;;;4973705;28;20602;-77
2022/11/06 11:30:59;;;;;;;17.23;11.83;;;;;;;;;;4974404;28;20247;-77
2022/11/06 11:34:14;;;;;;;17.70;13.10;;;;;;;;;;4973655;28;20199;-75
2022/11/06 11:37:27;;;;;;;17.37;12.73;;;;;;;;;;4962472;28;20198;-77
2022/11/06 11:40:36;;;;;;;17.23;12.40;;;;;;;;;;4951488;28;20190;-75
2022/11/06 11:43:41;;;;;;;14.57;11.10;;;;;;;;;;4962609;28;20202;-77
2022/11/06 11:46:53;;;;;;;17.60;11.37;;;;;;;;;;4962150;28;20213;-77
2022/11/06 11:50:29;;;;;;;15.67;11.50;;;;;;;;;;4962311;28;20186;-76
2022/11/06 11:53:34;;;;;;;15.50;11.30;;;;;;;;;;4974092;28;20257;-76
2022/11/06 11:56:44;;;;;;;15.37;11.20;;;;;;;;;;4973876;28;20572;-76
2022/11/06 11:59:56;;;;;;;14.87;10.50;;;;;;;;;;4962226;28;20194;-76
2022/11/06 12:03:05;;;;;;;14.67;10.93;;;;;;;;;;4961977;28;20183;-76
2022/11/06 12:06:15;;;;;;;13.27;9.87;;;;;;;;;;4974219;28;20183;-76
2022/11/06 12:09:21;;;;;;;13.03;10.30;;;;;;;;;;4973970;28;20207;-76
2022/11/06 12:12:33;;;;;;;12.77;10.10;;;;;;;;;;4965750;28;20237;-76
2022/11/06 12:15:52;;;;;;;11.77;9.23;;;;;;;;;;5010725;23;20244;-90
2022/11/06 12:18:57;;;;;;;12.93;10.43;;;;;;;;;;5008277;28;20186;-89
2022/11/06 12:22:14;;;;;;;14.30;10.17;;;;;;;;;;5008606;28;20209;-90
2022/11/06 12:25:24;;;;;;;11.47;9.73;;;;;;;;;;4985735;28;20224;-90
2022/11/06 12:28:37;;;;;;;12.73;10.77;;;;;;;;;;5002475;28;20217;-89
2022/11/06 12:31:59;;;;;;;12.07;10.37;;;;;;;;;;5005360;28;20181;-88
2022/11/06 12:35:14;;;;;;;13.73;11.00;;;;;;;;;;5015365;28;20233;-89
2022/11/06 12:38:30;;;;;;;12.43;10.50;;;;;;;;;;4993825;28;20184;-89
2022/11/06 12:41:38;;;;;;;11.93;10.00;;;;;;;;;;5003100;28;20198;-89
2022/11/06 12:44:46;;;;;;;11.67;9.87;;;;;;;;;;5002504;28;20190;-89
2022/11/06 12:48:23;;;;;;;11.60;9.80;;;;;;;;;;4990713;28;20190;-90
2022/11/06 12:51:34;;;;;;;12.40;9.97;;;;;;;;;;4990563;28;20181;-90
2022/11/06 12:54:56;;;;;;;11.20;9.63;;;;;;;;;;5001240;28;20178;-90
2022/11/06 12:58:21;;;;;;;13.37;10.20;;;;;;;;;;5000853;28;20202;-91
2022/11/06 13:01:41;;;;;;;11.57;9.57;;;;;;;;;;5000260;28;20299;-89
2022/11/06 13:04:49;;;;;;;13.13;9.63;;;;;;;;;;4999532;28;20251;-86
2022/11/06 13:08:15;;;;;;;11.47;9.73;;;;;;;;;;4987668;28;20534;-89
2022/11/06 13:11:19;;;;;;;10.47;8.83;;;;;;;;;;4998077;28;20193;-89
2022/11/06 13:14:54;;;;;;;10.43;9.07;;;;;;;;;;4986365;28;20540;-88
2022/11/06 13:18:14;;;;;;;12.00;8.83;;;;;;;;;;4985963;28;20185;-87
2022/11/06 13:21:59;;;;;;;11.70;9.20;;;;;;;;;;4986507;28;20188;-91
2022/11/06 13:25:09;;;;;;;11.10;9.37;;;;;;;;;;5003494;28;20229;-87
2022/11/06 13:28:33;;;;;;;12.07;9.80;;;;;;;;;;4995347;28;20180;-88
2022/11/06 13:31:46;;;;;;;11.33;10.07;;;;;;;;;;4995149;28;20193;-88
2022/11/06 13:34:52;;;;;;;11.03;9.23;;;;;;;;;;4995100;28;20208;-89
2022/11/06 13:37:59;;;;;;;10.17;9.00;;;;;;;;;;4992004;28;20189;-88
2022/11/06 13:41:18;;;;;;;9.07;7.93;;;;;;;;;;4990181;28;20213;-88
2022/11/06 13:44:23;;;;;;;10.10;7.97;;;;;;;;;;5010712;28;20213;-88
2022/11/06 13:47:40;;;;;;;9.60;8.00;;;;;;;;;;4997980;28;20201;-88
2022/11/06 13:51:07;;;;;;;10.43;8.53;;;;;;;;;;5000605;28;20270;-88
2022/11/06 13:54:46;;;;;;;11.03;9.50;;;;;;;;;;5004111;28;20697;-88
2022/11/06 13:58:25;;;;;;;11.83;9.53;;;;;;;;;;4999773;28;20205;-89
2022/11/06 14:02:07;;;;;;;10.50;8.97;;;;;;;;;;4994728;28;20185;-88
2022/11/06 14:05:27;;;;;;;11.63;8.50;;;;;;;;;;4993315;28;20701;-87
2022/11/06 14:08:45;;;;;;;10.70;8.13;;;;;;;;;;4983857;28;20214;-88
2022/11/06 14:11:55;;;;;;;10.60;7.93;;;;;;;;;;4985014;28;20548;-91
2022/11/06 14:15:38;;;;;;;10.03;7.93;;;;;;;;;;5013666;28;20185;-89
2022/11/06 14:18:55;;;;;;;11.50;7.87;;;;;;;;;;4951651;28;20180;-89
2022/11/06 14:22:36;;;;;;;10.40;8.37;;;;;;;;;;5002370;28;20211;-90
2022/11/06 14:25:40;;;;;;;13.00;8.60;;;;;;;;;;5002355;28;20228;-90
2022/11/06 14:28:44;;;;;;;11.23;9.00;;;;;;;;;;5001599;28;20228;-90
2022/11/06 14:31:57;;;;;;;10.97;8.63;;;;;;;;;;5013199;28;20527;-90
2022/11/06 14:35:32;;;;;;;11.33;8.60;;;;;;;;;;5012671;28;20216;-90
2022/11/06 14:38:37;;;;;;;9.93;7.53;;;;;;;;;;4992711;28;20201;-90
2022/11/06 14:41:53;;;;;;;10.50;8.30;;;;;;;;;;4983066;28;20185;-91
2022/11/06 14:45:09;;;;;;;12.20;8.30;;;;;;;;;;4997304;28;20260;-90
2022/11/06 14:48:28;;;;;;;9.47;7.40;;;;;;;;;;4981658;28;20534;-91
2022/11/06 14:51:32;;;;;;;10.83;7.67;;;;;;;;;;4982314;28;20648;-89
2022/11/06 14:54:39;;;;;;;8.50;6.87;;;;;;;;;;4993222;28;20185;-89
2022/11/06 14:57:48;;;;;;;8.67;6.67;;;;;;;;;;4981565;28;20182;-90
2022/11/06 15:01:14;;;;;;;12.33;7.60;;;;;;;;;;4982061;28;20178;-90
2022/11/06 15:04:20;;;;;;;10.00;7.17;;;;;;;;;;4983730;28;20648;-90
2022/11/06 15:07:46;;;;;;;10.10;7.10;;;;;;;;;;5003408;28;20186;-89
2022/11/06 15:10:52;;;;;;;9.03;7.30;;;;;;;;;;4998041;28;20218;-90
2022/11/06 15:13:59;;;;;;;9.73;7.50;;;;;;;;;;5003478;28;20181;-89
2022/11/06 15:17:14;;;;;;;10.73;7.20;;;;;;;;;;4980697;28;20237;-89
2022/11/06 15:20:24;;;;;;;9.13;7.13;;;;;;;;;;4981107;28;20589;-89
2022/11/06 15:23:39;;;;;;;9.80;7.23;;;;;;;;;;4994330;28;20185;-89
2022/11/06 15:26:50;;;;;;;12.07;8.03;;;;;;;;;;4980989;28;20217;-89
2022/11/06 15:29:59;;;;;;;11.33;7.13;;;;;;;;;;4981111;28;20668;-89
2022/11/06 15:33:10;;;;;;;8.83;7.40;;;;;;;;;;4983229;28;20181;-90
2022/11/06 15:36:16;;;;;;;9.47;7.47;;;;;;;;;;4993730;28;20217;-88
2022/11/06 15:39:40;;;;;;;9.67;7.07;;;;;;;;;;4992547;28;20178;-89
2022/11/06 15:43:24;;;;;;;9.83;7.30;;;;;;;;;;4982807;28;20190;-91
2022/11/06 15:46:29;;;;;;;8.67;6.60;;;;;;;;;;5005688;28;20220;-87
2022/11/06 15:49:33;;;;;;;9.47;7.40;;;;;;;;;;4984744;28;20221;-88
2022/11/06 15:52:38;;;;;;;13.20;8.97;;;;;;;;;;4997330;28;20189;-88
2022/11/06 15:55:50;;;;;;;29.00;14.90;;;;;;;;;;4997245;28;20707;-88
2022/11/06 15:59:07;;;;;;;20.10;12.00;;;;;;;;;;4985357;28;20192;-88
2022/11/06 16:02:21;;;;;;;18.60;11.17;;;;;;;;;;4985539;28;20193;-88
2022/11/06 16:05:31;;;;;;;15.77;10.27;;;;;;;;;;5007325;28;20233;-88
2022/11/06 16:08:37;;;;;;;12.20;9.20;;;;;;;;;;4984943;28;20201;-88
2022/11/06 16:11:43;;;;;;;12.27;8.37;;;;;;;;;;4996403;28;20185;-88
2022/11/06 16:14:53;;;;;;;11.00;7.57;;;;;;;;;;4986509;28;20182;-90
2022/11/06 16:18:05;;;;;;;10.50;8.00;;;;;;;;;;5003999;28;20209;-92
2022/11/06 16:21:17;;;;;;;10.93;7.50;;;;;;;;;;4986785;28;20193;-94
2022/11/06 16:24:22;;;;;;;11.63;7.87;;;;;;;;;;4998158;28;20196;-92
2022/11/06 16:27:35;;;;;;;11.17;7.50;;;;;;;;;;5017253;28;20181;-91
2022/11/06 16:30:39;;;;;;;12.17;8.23;;;;;;;;;;5004247;28;20208;-91
2022/11/06 16:33:57;;;;;;;8.90;7.37;;;;;;;;;;4993999;28;20189;-91
2022/11/06 16:37:07;;;;;;;8.20;6.33;;;;;;;;;;5004946;28;20212;-88
2022/11/06 16:40:49;;;;;;;9.63;7.00;;;;;;;;;;4993277;28;20553;-88
2022/11/06 16:44:24;;;;;;;9.43;6.53;;;;;;;;;;4994783;28;20190;-89
2022/11/06 16:47:28;;;;;;;9.43;7.17;;;;;;;;;;4995104;28;20185;-89
2022/11/06 16:50:52;;;;;;;10.80;6.93;;;;;;;;;;4984509;28;20221;-88
2022/11/06 16:53:58;;;;;;;10.17;7.47;;;;;;;;;;4995398;28;20186;-88
2022/11/06 16:57:12;;;;;;;10.40;7.40;;;;;;;;;;4994080;28;20225;-88
2022/11/06 17:00:19;;;;;;;11.93;7.43;;;;;;;;;;4983334;28;20633;-88
2022/11/06 17:03:24;;;;;;;11.43;8.40;;;;;;;;;;4984076;28;20182;-89
2022/11/06 17:06:34;;;;;;;12.70;8.77;;;;;;;;;;4983128;28;20565;-88
2022/11/06 17:09:38;;;;;;;13.10;8.93;;;;;;;;;;4983699;28;20669;-88
2022/11/06 17:12:42;;;;;;;10.43;7.97;;;;;;;;;;4983522;28;20209;-88
2022/11/06 17:15:58;;;;;;;10.43;8.07;;;;;;;;;;4982558;28;20229;-88
2022/11/06 17:19:03;;;;;;;13.97;8.83;;;;;;;;;;4983173;28;20186;-89
2022/11/06 17:22:10;;;;;;;12.47;8.50;;;;;;;;;;4983428;28;20190;-87
2022/11/06 17:25:14;;;;;;;12.63;8.30;;;;;;;;;;4994875;28;20225;-87
2022/11/06 17:28:18;;;;;;;11.53;8.00;;;;;;;;;;4994059;28;20640;-88
2022/11/06 17:31:23;;;;;;;11.70;8.33;;;;;;;;;;4999253;28;20213;-87
2022/11/06 17:34:28;;;;;;;11.13;8.37;;;;;;;;;;5013365;28;20181;-87
2022/11/06 17:37:32;;;;;;;11.60;7.77;;;;;;;;;;5002164;28;20185;-89
2022/11/06 17:40:36;;;;;;;11.23;7.87;;;;;;;;;;5002365;28;20177;-87
2022/11/06 17:43:40;;;;;;;11.83;8.67;;;;;;;;;;5002151;28;20632;-87
2022/11/06 17:46:45;;;;;;;11.80;8.93;;;;;;;;;;5013884;28;20224;-87
2022/11/06 17:49:50;;;;;;;14.50;9.17;;;;;;;;;;5001983;28;20209;-89
2022/11/06 17:52:54;;;;;;;13.17;9.17;;;;;;;;;;5002526;28;20185;-89
2022/11/06 17:56:01;;;;;;;11.80;9.23;;;;;;;;;;5013276;28;20216;-89
2022/11/06 17:59:07;;;;;;;13.00;8.40;;;;;;;;;;5002167;28;20181;-89
2022/11/06 18:02:13;;;;;;;12.77;8.73;;;;;;;;;;5002411;28;20189;-88
2022/11/06 18:05:18;;;;;;;14.83;8.70;;;;;;;;;;5002150;28;20224;-89
2022/11/06 18:08:22;;;;;;;12.10;8.43;;;;;;;;;;5012231;28;20189;-88
2022/11/06 18:11:26;;;;;;;12.20;9.20;;;;;;;;;;5001794;28;20212;-88
2022/11/06 18:14:30;;;;;;;12.07;8.43;;;;;;;;;;5002361;28;20616;-91
2022/11/06 18:17:34;;;;;;;10.63;8.60;;;;;;;;;;4985969;23;20238;-80
2022/11/06 18:20:46;;;;;;;12.30;8.17;;;;;;;;;;4952645;28;20539;-80
2022/11/06 18:23:50;;;;;;;13.00;8.70;;;;;;;;;;4952411;29;20188;-80
2022/11/06 18:26:55;;;;;;;13.23;9.43;;;;;;;;;;4951656;29;20188;-80
2022/11/06 18:29:59;;;;;;;12.50;9.77;;;;;;;;;;4951271;29;20681;-80
2022/11/06 18:33:03;;;;;;;12.50;9.23;;;;;;;;;;4951524;29;20183;-81
2022/11/06 18:36:09;;;;;;;14.10;10.83;;;;;;;;;;4952021;29;20183;-81
2022/11/06 18:39:13;;;;;;;15.23;10.73;;;;;;;;;;4952356;29;20551;-81
2022/11/06 18:42:18;;;;;;;18.00;12.03;;;;;;;;;;4951510;29;20605;-80
2022/11/06 18:45:22;;;;;;;15.97;11.50;;;;;;;;;;4952146;29;20192;-81
2022/11/06 18:48:26;;;;;;;18.67;12.20;;;;;;;;;;4952123;29;20187;-81
2022/11/06 18:51:32;;;;;;;19.63;12.80;;;;;;;;;;4963324;28;20620;-80
2022/11/06 18:54:36;;;;;;;17.67;13.00;;;;;;;;;;4950796;29;20662;-81